Time;durP1;ratioP1;P1;durP2;ratioP2;P2;SDS_P1;SDS_P2;PMS_P1;PMS_P2;Temp;Humidity;BMP_temperature;BMP_pressure;BME280_temperature;BME280_humidity;BME280_pressure;Samples;Min_cycle;Max_cycle;Signal;HPM_P1;HPM_P2
2022/07/16 00:02:42;;;;;;;;;2.00;2.00;;;;;21.87;39.11;101546.22;5058989;28;45253;-64
2022/07/16 00:05:07;;;;;;;;;3.67;3.67;;;;;21.90;39.26;101552.25;5058932;28;45985;-67
2022/07/16 00:07:33;;;;;;;;;4.67;3.00;;;;;21.86;39.37;101558.06;5058279;28;45520;-65
2022/07/16 00:09:58;;;;;;;;;3.33;3.33;;;;;21.78;39.60;101554.19;5058438;28;45326;-65
2022/07/16 00:12:25;;;;;;;;;2.00;2.00;;;;;21.73;39.58;101550.16;5058356;28;45471;-65
2022/07/16 00:14:51;;;;;;;;;4.00;4.00;;;;;21.66;39.68;101546.28;5058279;28;46085;-66
2022/07/16 00:17:18;;;;;;;;;3.00;3.00;;;;;21.66;40.06;101563.41;5058259;28;45409;-64
2022/07/16 00:19:43;;;;;;;;;2.00;2.00;;;;;21.67;39.50;101559.69;5057025;28;45273;-64
2022/07/16 00:22:09;;;;;;;;;3.33;3.33;;;;;21.62;40.29;101564.66;5040093;28;45566;-65
2022/07/16 00:24:34;;;;;;;;;4.00;4.00;;;;;21.55;40.28;101551.78;5057900;28;45350;-65
2022/07/16 00:27:00;;;;;;;;;4.00;4.00;;;;;21.42;39.95;101549.28;5058019;28;45256;-65
2022/07/16 00:29:25;;;;;;;;;2.67;2.67;;;;;21.46;40.35;101561.53;5058218;28;45257;-65
2022/07/16 00:31:51;;;;;;;;;2.00;2.00;;;;;21.42;40.21;101558.25;5057013;28;45293;-65
2022/07/16 00:34:17;;;;;;;;;3.00;3.00;;;;;21.32;40.77;101561.88;5057495;28;46194;-65
2022/07/16 00:36:43;;;;;;;;;3.00;3.00;;;;;21.28;40.74;101560.44;5057922;28;45469;-66
2022/07/16 00:39:09;;;;;;;;;3.00;2.67;;;;;21.27;40.94;101558.72;5057879;28;45433;-65
2022/07/16 00:41:37;;;;;;;;;2.33;2.00;;;;;21.20;40.94;101556.50;5058173;28;45356;-65
2022/07/16 00:44:05;;;;;;;;;3.00;3.00;;;;;21.22;40.88;101559.06;5057642;28;45379;-65
2022/07/16 00:46:32;;;;;;;;;3.00;3.00;;;;;21.18;40.90;101558.47;5056193;28;45541;-65
2022/07/16 00:48:58;;;;;;;;;3.67;3.67;;;;;21.16;40.97;101565.88;5073568;28;45440;-64
2022/07/16 00:51:25;;;;;;;;;4.67;4.67;;;;;21.11;41.62;101557.31;5058149;28;45272;-65
2022/07/16 00:53:52;;;;;;;;;5.00;4.33;;;;;21.04;41.54;101558.81;5057865;28;45336;-65
2022/07/16 00:56:17;;;;;;;;;4.33;3.00;;;;;21.02;41.81;101566.19;5057489;28;45337;-65
2022/07/16 00:58:45;;;;;;;;;5.33;3.67;;;;;20.99;41.52;101561.06;5057552;28;45481;-65
2022/07/16 01:01:11;;;;;;;;;3.00;3.00;;;;;20.99;41.49;101561.06;5057875;28;45235;-65
2022/07/16 01:03:38;;;;;;;;;3.00;3.00;;;;;21.02;41.46;101557.22;5057329;28;45331;-64
2022/07/16 01:06:05;;;;;;;;;5.00;3.67;;;;;20.98;41.55;101558.47;5057383;28;45331;-64
2022/07/16 01:08:33;;;;;;;;;5.00;4.00;;;;;20.96;41.86;101561.28;5056238;28;45401;-63
2022/07/16 01:11:00;;;;;;;;;2.00;2.00;;;;;20.90;41.76;101551.00;5057932;28;45457;-64
2022/07/16 01:13:26;;;;;;;;;3.00;3.00;;;;;20.96;41.53;101563.13;5057238;28;45233;-65
2022/07/16 01:15:52;;;;;;;;;3.00;3.00;;;;;20.87;41.43;101548.56;5057749;28;45324;-64
2022/07/16 01:18:17;;;;;;;;;4.00;4.00;;;;;20.82;41.97;101545.38;5057439;28;45413;-63
2022/07/16 01:20:43;;;;;;;;;3.00;3.00;;;;;20.93;42.01;101569.66;5057398;28;45379;-64
2022/07/16 01:23:09;;;;;;;;;5.00;3.67;;;;;20.81;41.78;101546.34;5056792;28;45450;-67
2022/07/16 01:25:35;;;;;;;;;5.00;3.00;;;;;20.90;41.76;101561.81;5056757;28;45314;-64
2022/07/16 01:28:00;;;;;;;;;2.67;2.67;;;;;20.89;41.75;101552.00;5055732;28;45369;-63
2022/07/16 01:30:25;;;;;;;;;3.00;2.00;;;;;20.95;41.98;101561.41;5057068;28;45320;-64
2022/07/16 01:32:51;;;;;;;;;4.00;2.00;;;;;20.97;41.67;101563.03;5056641;28;45565;-66
2022/07/16 01:35:18;;;;;;;;;5.00;3.00;;;;;20.87;42.04;101567.50;5057159;28;45845;-64
2022/07/16 01:37:43;;;;;;;;;4.00;4.00;;;;;20.85;42.16;101567.63;5057413;28;45453;-65
2022/07/16 01:40:09;;;;;;;;;4.00;3.00;;;;;20.85;42.12;101570.31;5055962;28;45438;-65
2022/07/16 01:42:34;;;;;;;;;3.00;3.00;;;;;20.74;42.35;101562.25;5037906;28;45418;-65
2022/07/16 01:45:00;;;;;;;;;2.00;2.00;;;;;20.74;42.14;101559.53;5056670;28;45389;-65
2022/07/16 01:47:26;;;;;;;;;5.00;4.33;;;;;20.72;42.37;101566.06;5057198;28;45274;-65
2022/07/16 01:49:51;;;;;;;;;4.00;4.00;;;;;20.66;42.50;101574.69;5056057;28;45648;-64
2022/07/16 01:52:19;;;;;;;;;4.00;4.00;;;;;20.66;42.59;101571.97;5055577;28;46932;-65
2022/07/16 01:54:52;;;;;;;;;7.33;6.33;;;;;20.71;42.37;101572.47;5056482;28;45418;-64
2022/07/16 01:57:19;;;;;;;;;16.67;14.67;;;;;20.70;42.63;101573.44;5056843;28;45374;-64
2022/07/16 01:59:45;;;;;;;;;21.33;16.67;;;;;20.68;42.71;101575.41;5056618;28;45492;-64
2022/07/16 02:02:12;;;;;;;;;17.67;14.33;;;;;20.61;42.68;101566.97;5056452;28;45484;-63
2022/07/16 02:04:38;;;;;;;;;19.67;19.00;;;;;20.56;42.63;101559.22;5056389;28;45422;-62
2022/07/16 02:07:04;;;;;;;;;16.33;16.33;;;;;20.50;43.18;101554.34;5056413;28;45805;-65
2022/07/16 02:09:29;;;;;;;;;24.67;20.00;;;;;20.50;43.26;101566.97;5055366;28;45506;-64
2022/07/16 02:11:55;;;;;;;;;19.67;16.67;;;;;20.52;42.91;101567.72;5056409;28;45437;-64
2022/07/16 02:14:21;;;;;;;;;14.67;13.33;;;;;20.50;43.07;101565.13;5056257;28;45299;-66
2022/07/16 02:16:47;;;;;;;;;16.33;14.00;;;;;20.49;42.84;101563.44;5056305;28;45307;-65
2022/07/16 02:19:12;;;;;;;;;11.67;9.33;;;;;20.51;42.96;101553.34;5072115;28;45251;-63
2022/07/16 02:21:38;;;;;;;;;8.33;7.33;;;;;20.57;42.96;101563.66;5056741;28;46009;-64
2022/07/16 02:24:03;;;;;;;;;6.00;6.00;;;;;20.51;43.11;101558.75;5054921;28;45472;-65
2022/07/16 02:26:29;;;;;;;;;8.33;6.67;;;;;20.50;43.07;101559.72;5056921;28;45268;-64
2022/07/16 02:28:54;;;;;;;;;8.33;6.00;;;;;20.55;43.06;101572.84;5056283;28;45444;-65
2022/07/16 02:31:20;;;;;;;;;6.00;5.00;;;;;20.50;43.31;101564.28;5056134;28;45401;-65
2022/07/16 02:33:45;;;;;;;;;6.00;6.00;;;;;20.46;43.24;101560.13;5055977;28;45935;-63
2022/07/16 02:36:11;;;;;;;;;5.00;5.00;;;;;20.41;43.49;101571.25;5055010;28;45322;-65
2022/07/16 02:38:37;;;;;;;;;4.67;4.67;;;;;20.45;43.34;101561.13;5056261;28;45560;-64
2022/07/16 02:41:02;;;;;;;;;4.00;4.00;;;;;20.45;43.38;101564.66;5055951;28;45334;-64
2022/07/16 02:43:27;;;;;;;;;3.00;3.00;;;;;20.45;43.31;101567.38;5056267;28;45334;-63
2022/07/16 02:45:53;;;;;;;;;6.00;4.00;;;;;20.42;43.37;101567.59;5056241;28;45452;-63
2022/07/16 02:48:18;;;;;;;;;7.00;5.33;;;;;20.41;43.79;101571.25;5054814;28;45508;-63
2022/07/16 02:50:44;;;;;;;;;4.00;2.00;;;;;20.40;43.68;101564.13;5055971;28;45567;-63
2022/07/16 02:53:09;;;;;;;;;4.67;4.67;;;;;20.35;43.70;101558.25;5055725;28;45173;-64
2022/07/16 02:55:35;;;;;;;;;8.33;4.67;;;;;20.39;43.56;101569.66;5057598;28;45287;-64
2022/07/16 02:58:00;;;;;;;;;6.33;4.00;;;;;20.43;43.45;101563.06;5059790;28;45422;-64
2022/07/16 03:00:28;;;;;;;;;7.00;5.33;;;;;20.36;43.40;101553.72;5059047;28;45236;-69
2022/07/16 03:02:53;;;;;;;;;4.00;4.00;;;;;20.37;43.47;101566.25;5059433;28;45486;-64
2022/07/16 03:05:19;;;;;;;;;4.67;4.67;;;;;20.31;43.79;101564.88;5059388;28;45374;-66
2022/07/16 03:07:44;;;;;;;;;4.00;4.00;;;;;20.29;44.17;101556.91;5059585;28;45428;-65
2022/07/16 03:10:11;;;;;;;;;6.00;4.00;;;;;20.31;43.86;101560.38;5059160;28;46191;-65
2022/07/16 03:12:38;;;;;;;;;4.00;4.00;;;;;20.31;43.78;101560.38;5059154;28;45338;-65
2022/07/16 03:15:04;;;;;;;;;3.00;3.00;;;;;20.29;43.96;101558.75;5057645;28;45331;-65
2022/07/16 03:17:30;;;;;;;;;5.00;3.67;;;;;20.33;44.19;101562.94;5059488;28;45271;-62
2022/07/16 03:19:55;;;;;;;;;6.00;4.00;;;;;20.36;43.96;101557.28;5057467;28;45283;-65
2022/07/16 03:22:21;;;;;;;;;4.00;4.00;;;;;20.30;43.97;101565.88;5059102;28;45362;-64
2022/07/16 03:24:46;;;;;;;;;4.00;4.00;;;;;20.27;43.89;101560.72;5059475;28;45247;-67
2022/07/16 03:27:12;;;;;;;;;6.00;5.67;;;;;20.26;43.90;101557.16;5059417;28;45280;-64
2022/07/16 03:29:38;;;;;;;;;7.00;4.00;;;;;20.22;44.08;101538.66;5059207;28;45209;-66
2022/07/16 03:32:03;;;;;;;;;4.00;4.00;;;;;20.27;44.26;101568.81;5057633;28;45400;-64
2022/07/16 03:34:29;;;;;;;;;4.00;4.00;;;;;20.17;44.37;101566.00;5057917;28;45397;-64
2022/07/16 03:36:54;;;;;;;;;5.00;4.00;;;;;20.10;44.56;101566.66;5059155;28;45337;-65
2022/07/16 03:39:20;;;;;;;;;6.00;6.00;;;;;20.11;44.44;101562.97;5058727;28;45403;-64
2022/07/16 03:41:45;;;;;;;;;4.00;4.00;;;;;20.03;44.80;101567.13;5058976;28;45485;-66
2022/07/16 03:44:12;;;;;;;;;3.00;3.00;;;;;19.98;44.81;101572.03;5057179;28;45385;-65
2022/07/16 03:46:38;;;;;;;;;3.00;3.00;;;;;19.92;44.83;101564.44;5058708;28;45390;-65
2022/07/16 03:49:04;;;;;;;;;5.00;3.67;;;;;19.90;44.84;101569.09;5058707;28;45433;-62
2022/07/16 03:51:29;;;;;;;;;4.67;4.00;;;;;19.94;45.11;101580.53;5058803;28;45300;-64
2022/07/16 03:53:55;;;;;;;;;3.67;3.67;;;;;19.83;45.53;101565.16;5058354;28;45260;-62
2022/07/16 03:56:21;;;;;;;;;3.00;3.00;;;;;19.89;45.09;101563.81;5058896;28;45254;-64
2022/07/16 03:58:46;;;;;;;;;4.00;3.00;;;;;19.85;45.10;101565.03;5056790;28;46625;-64
2022/07/16 04:01:12;;;;;;;;;4.00;4.00;;;;;19.86;45.21;101574.88;5058107;28;45181;-65
2022/07/16 04:03:38;;;;;;;;;4.00;4.00;;;;;19.83;45.21;101569.72;5058477;28;45300;-65
2022/07/16 04:06:04;;;;;;;;;4.00;4.00;;;;;19.82;45.53;101574.25;5058439;28;45309;-65
2022/07/16 04:08:30;;;;;;;;;6.67;5.00;;;;;19.85;45.43;101582.09;5073998;28;45440;-64
2022/07/16 04:10:56;;;;;;;;;6.00;5.67;;;;;19.81;45.63;101585.19;5057865;28;45389;-68
2022/07/16 04:13:21;;;;;;;;;4.33;4.33;;;;;19.79;45.69;101585.28;5058321;28;45415;-65
2022/07/16 04:15:47;;;;;;;;;5.00;5.00;;;;;19.74;45.81;101582.94;5058803;28;45515;-63
2022/07/16 04:18:12;;;;;;;;;6.67;4.67;;;;;19.69;46.22;101587.84;5056644;28;47790;-62
2022/07/16 04:20:38;;;;;;;;;5.67;5.67;;;;;19.53;46.22;101573.81;5057944;28;45347;-65
2022/07/16 04:23:03;;;;;;;;;8.67;5.33;;;;;19.64;46.43;101602.66;5058311;28;45358;-64
2022/07/16 04:25:29;;;;;;;;;4.33;4.33;;;;;19.61;46.22;101602.91;5058177;28;45556;-65
2022/07/16 04:27:55;;;;;;;;;6.33;4.67;;;;;19.61;46.15;101602.91;5057785;28;46215;-63
2022/07/16 04:30:20;;;;;;;;;6.67;6.67;;;;;19.60;46.66;101601.22;5057883;28;45825;-65
2022/07/16 04:32:46;;;;;;;;;10.67;7.00;;;;;19.59;46.55;101604.88;5057835;28;45375;-65
2022/07/16 04:35:13;;;;;;;;;5.00;5.00;;;;;19.59;46.42;101611.13;5056783;28;45512;-63
2022/07/16 04:37:39;;;;;;;;;4.00;4.00;;;;;19.55;46.63;101606.13;5057799;28;45269;-64
2022/07/16 04:40:08;;;;;;;;;4.33;4.33;;;;;19.56;46.87;101605.13;5058034;28;45417;-63
2022/07/16 04:42:35;;;;;;;;;5.00;5.00;;;;;19.56;46.96;101611.38;5057672;28;45370;-62
2022/07/16 04:45:01;;;;;;;;;1.67;1.67;;;;;19.52;46.73;101614.38;5058056;28;45523;-65
2022/07/16 04:47:27;;;;;;;;;8.00;8.00;;;;;19.40;47.63;101608.09;5057414;28;45445;-64
2022/07/16 04:49:52;;;;;;;;;6.67;6.67;;;;;19.40;47.24;101617.09;5057755;28;45254;-65
2022/07/16 04:52:18;;;;;;;;;3.00;3.00;;;;;19.31;47.50;101600.72;5057683;28;45252;-64
2022/07/16 04:54:43;;;;;;;;;5.00;5.00;;;;;19.41;47.74;101608.00;5057874;28;45626;-66
2022/07/16 04:57:09;;;;;;;;;6.00;5.67;;;;;19.43;47.01;101607.88;5057198;28;45876;-63
2022/07/16 04:59:34;;;;;;;;;6.33;4.33;;;;;19.49;47.70;101615.50;5056278;28;45491;-65
2022/07/16 05:04:48;;;;;;;;;5.00;5.00;;;;;19.49;47.50;101617.34;5037864;28;45662;-63
2022/07/16 05:07:14;;;;;;;;;6.00;6.00;;;;;19.53;47.43;101614.28;5057185;28;45334;-63
2022/07/16 05:09:39;;;;;;;;;4.67;4.67;;;;;19.55;47.66;101614.22;5057057;28;45353;-64
2022/07/16 05:12:05;;;;;;;;;4.67;4.67;;;;;19.55;47.78;101616.91;5057816;28;45268;-64
2022/07/16 05:14:30;;;;;;;;;5.67;5.00;;;;;19.55;48.18;101616.91;5055764;28;45572;-63
2022/07/16 05:16:56;;;;;;;;;6.00;6.00;;;;;19.48;48.20;101623.72;5057068;28;45304;-65
2022/07/16 05:19:22;;;;;;;;;6.00;6.00;;;;;19.44;47.76;101618.56;5056291;28;45403;-64
2022/07/16 05:21:48;;;;;;;;;7.67;6.00;;;;;19.47;47.34;101612.06;5057290;28;45288;-64
2022/07/16 05:24:13;;;;;;;;;7.67;6.00;;;;;19.47;47.75;101622.00;5056976;28;45338;-63
2022/07/16 05:26:39;;;;;;;;;5.67;5.67;;;;;19.48;47.86;101605.69;5057157;28;46004;-63
2022/07/16 05:29:04;;;;;;;;;6.00;6.00;;;;;19.39;47.69;101599.16;5057217;28;45405;-65
2022/07/16 05:31:30;;;;;;;;;5.67;5.00;;;;;19.34;47.75;101590.56;5055810;28;45378;-62
2022/07/16 05:33:55;;;;;;;;;5.00;5.00;;;;;19.48;48.40;101602.13;5055751;28;45436;-64
2022/07/16 05:36:21;;;;;;;;;7.33;5.67;;;;;19.50;48.08;101597.47;5054986;28;45497;-64
2022/07/16 05:38:46;;;;;;;;;6.00;6.00;;;;;19.56;47.47;101610.53;5055287;28;45361;-63
2022/07/16 05:41:12;;;;;;;;;7.00;5.67;;;;;19.61;47.72;101608.31;5056918;28;45477;-65
2022/07/16 05:43:37;;;;;;;;;6.00;4.33;;;;;19.62;47.58;101615.44;5057336;28;45499;-64
2022/07/16 05:46:03;;;;;;;;;7.33;7.33;;;;;19.51;48.16;101612.66;5056638;28;46126;-65
2022/07/16 05:48:28;;;;;;;;;7.33;6.33;;;;;19.50;47.94;101622.59;5072185;28;45422;-65
2022/07/16 05:50:54;;;;;;;;;7.67;7.67;;;;;19.42;48.01;101617.81;5055381;28;45374;-65
2022/07/16 05:53:20;;;;;;;;;7.00;7.00;;;;;19.40;48.61;101630.56;5056935;28;45474;-64
2022/07/16 05:55:45;;;;;;;;;6.33;6.00;;;;;19.22;48.26;101615.78;5056398;28;45909;-65
2022/07/16 05:58:10;;;;;;;;;7.00;7.00;;;;;19.32;48.11;101624.88;5056736;28;45351;-63
2022/07/16 06:00:36;;;;;;;;;8.33;5.33;;;;;19.40;48.07;101635.06;5056793;28;45608;-64
2022/07/16 06:03:01;;;;;;;;;10.33;6.33;;;;;19.42;48.45;101625.91;5056706;28;45510;-64
2022/07/16 06:05:27;;;;;;;;;5.67;5.67;;;;;19.49;48.29;101628.13;5056174;28;46000;-65
2022/07/16 06:07:52;;;;;;;;;5.00;5.00;;;;;19.58;48.37;101631.00;5056053;28;45280;-64
2022/07/16 06:10:19;;;;;;;;;8.00;8.00;;;;;19.57;47.87;101631.13;5055310;28;45726;-64
2022/07/16 06:12:44;;;;;;;;;10.33;8.00;;;;;19.62;47.94;101643.28;5055400;28;45489;-65
2022/07/16 06:15:11;;;;;;;;;6.00;6.00;;;;;19.55;47.94;101644.75;5056787;28;46135;-65
2022/07/16 06:17:37;;;;;;;;;8.33;5.00;;;;;19.63;48.04;101650.38;5056767;28;45462;-65
2022/07/16 06:20:04;;;;;;;;;7.00;7.00;;;;;19.61;48.05;101646.09;5056446;28;45271;-64
2022/07/16 06:22:30;;;;;;;;;7.67;7.67;;;;;19.64;47.93;101651.25;5054984;28;45417;-64
2022/07/16 06:24:55;;;;;;;;;7.00;7.00;;;;;19.55;48.01;101652.84;5055939;28;45259;-65
2022/07/16 06:27:21;;;;;;;;;7.33;7.00;;;;;19.57;48.06;101650.88;5056012;28;45273;-64
2022/07/16 06:29:46;;;;;;;;;7.00;7.00;;;;;19.53;48.19;101649.38;5054920;28;45422;-65
2022/07/16 06:32:12;;;;;;;;;2.00;2.00;;;;;19.57;48.14;101664.38;5055403;28;45306;-63
2022/07/16 06:34:37;;;;;;;;;5.67;5.67;;;;;19.58;48.03;101662.53;5054379;28;46705;-64
2022/07/16 06:37:02;;;;;;;;;4.00;4.00;;;;;19.66;47.89;101670.88;5055792;28;45444;-65
2022/07/16 06:39:28;;;;;;;;;7.67;5.00;;;;;19.61;48.09;101663.16;5056372;28;46175;-64
2022/07/16 06:41:53;;;;;;;;;7.33;6.33;;;;;19.74;47.43;101676.56;5056488;28;45252;-65
2022/07/16 06:44:19;;;;;;;;;6.67;5.33;;;;;19.76;47.36;101671.91;5056087;28;45655;-62
2022/07/16 06:46:44;;;;;;;;;7.00;5.00;;;;;19.83;47.72;101677.69;5055835;28;45461;-65
2022/07/16 06:49:10;;;;;;;;;4.00;3.67;;;;;19.85;47.36;101687.38;5056657;28;45423;-65
2022/07/16 06:51:35;;;;;;;;;6.00;4.67;;;;;19.78;47.33;101675.31;5056716;28;45403;-65
2022/07/16 06:54:01;;;;;;;;;4.67;2.67;;;;;19.87;47.18;101689.97;5056816;28;46498;-64
2022/07/16 06:56:26;;;;;;;;;7.00;4.00;;;;;19.88;46.87;101702.47;5056130;28;45459;-64
2022/07/16 06:58:51;;;;;;;;;6.00;6.00;;;;;19.95;46.96;101701.03;5055930;28;45455;-65
2022/07/16 07:01:17;;;;;;;;;5.00;5.00;;;;;20.03;47.00;101696.72;5056426;28;45453;-67
2022/07/16 07:03:42;;;;;;;;;5.00;2.67;;;;;20.12;47.29;101700.56;5056064;28;45981;-65
2022/07/16 07:06:08;;;;;;;;;6.00;5.67;;;;;20.21;46.63;101696.28;5056010;28;45464;-65
2022/07/16 07:08:33;;;;;;;;;4.00;4.00;;;;;20.23;46.08;101686.22;5054583;28;45287;-66
2022/07/16 07:11:02;;;;;;;;;3.67;3.67;;;;;20.26;46.14;101705.72;5055884;28;45362;-64
2022/07/16 07:13:30;;;;;;;;;4.00;4.00;;;;;20.26;45.72;101699.47;5055428;28;45323;-65
2022/07/16 07:15:56;;;;;;;;;3.67;3.67;;;;;20.37;45.97;101706.72;5054267;28;45456;-66
2022/07/16 07:18:22;;;;;;;;;7.00;4.00;;;;;20.38;46.23;101701.19;5055848;28;45296;-65
2022/07/16 07:20:48;;;;;;;;;5.00;5.00;;;;;20.43;45.97;101699.00;5055533;28;45476;-65
2022/07/16 07:23:13;;;;;;;;;6.00;6.00;;;;;20.49;45.91;101695.84;5055599;28;45337;-66
2022/07/16 07:25:38;;;;;;;;;3.67;3.67;;;;;20.57;45.86;101697.91;5055359;28;45402;-66
2022/07/16 07:28:04;;;;;;;;;6.00;5.00;;;;;20.60;45.64;101697.69;5055710;28;45745;-66
2022/07/16 07:30:30;;;;;;;;;5.00;5.00;;;;;20.45;45.45;101680.88;5055716;28;45430;-66
2022/07/16 07:32:56;;;;;;;;;7.33;6.00;;;;;20.59;45.51;101688.72;5055108;28;45346;-65
2022/07/16 07:35:21;;;;;;;;;4.33;4.33;;;;;20.72;45.47;101701.22;5055156;28;45307;-65
2022/07/16 07:37:47;;;;;;;;;5.67;3.67;;;;;20.89;45.28;101703.41;5055441;28;45277;-65
2022/07/16 07:40:13;;;;;;;;;4.00;4.00;;;;;20.94;44.99;101693.06;5055997;28;45257;-65
2022/07/16 07:42:39;;;;;;;;;4.33;4.33;;;;;21.01;44.69;101699.69;5058127;28;46374;-64
2022/07/16 07:45:05;;;;;;;;;5.33;4.33;;;;;21.07;44.26;101710.00;5058915;28;45351;-65
2022/07/16 07:47:31;;;;;;;;;4.67;4.67;;;;;21.02;44.42;101689.75;5058675;28;45421;-65
2022/07/16 07:49:57;;;;;;;;;4.00;4.00;;;;;21.14;44.96;101705.81;5058853;28;45794;-64
2022/07/16 07:52:22;;;;;;;;;3.00;2.00;;;;;21.24;44.19;101700.50;5058685;28;46192;-65
2022/07/16 07:54:48;;;;;;;;;4.00;4.00;;;;;21.29;43.87;101686.63;5058747;28;45424;-65
2022/07/16 07:57:13;;;;;;;;;6.67;5.00;;;;;21.35;43.92;101696.91;5058807;28;45348;-64
2022/07/16 07:59:38;;;;;;;;;5.00;3.33;;;;;21.38;43.61;101688.56;5058717;28;45395;-66
2022/07/16 08:02:04;;;;;;;;;4.00;4.00;;;;;21.51;43.14;101702.78;5057014;28;45440;-66
2022/07/16 08:04:30;;;;;;;;;9.67;5.67;;;;;21.57;43.62;101701.38;5058802;28;45401;-65
2022/07/16 08:06:55;;;;;;;;;4.00;4.00;;;;;21.54;43.15;101686.25;5059656;28;45490;-67
2022/07/16 08:09:20;;;;;;;;;4.00;4.00;;;;;21.49;43.06;101688.50;5058701;28;45553;-66
2022/07/16 08:11:46;;;;;;;;;4.00;4.00;;;;;21.66;43.03;101696.06;5058481;28;45378;-67
2022/07/16 08:14:11;;;;;;;;;4.33;4.00;;;;;21.75;42.58;101705.25;5057966;28;45224;-66
2022/07/16 08:16:37;;;;;;;;;4.00;4.00;;;;;21.84;42.42;101711.69;5058204;28;45250;-64
2022/07/16 08:19:02;;;;;;;;;4.00;4.00;;;;;21.84;42.55;101693.59;5057025;28;45667;-64
2022/07/16 08:21:28;;;;;;;;;8.33;4.33;;;;;22.02;42.31;101710.13;5058055;28;45284;-64
2022/07/16 08:26:38;;;;;;;;;7.00;5.00;;;;;22.26;41.73;101702.56;5058190;28;45398;-64
2022/07/16 08:29:03;;;;;;;;;4.67;4.00;;;;;22.62;41.79;101706.59;5056853;28;45589;-64
2022/07/16 08:31:28;;;;;;;;;6.33;5.00;;;;;23.12;41.10;101684.06;5056492;28;46157;-64
2022/07/16 08:33:54;;;;;;;;;3.50;3.00;;;;;23.76;39.69;101697.09;5057503;28;45510;-68
2022/07/16 08:36:19;;;;;;;;;3.00;3.00;;;;;24.30;37.94;101693.72;5057802;28;45389;-64
2022/07/16 08:38:45;;;;;;;;;4.25;4.25;;;;;24.69;38.71;101680.81;5058209;28;45592;-66
2022/07/16 08:41:11;;;;;;;;;4.75;4.75;;;;;25.20;36.25;101689.41;5057595;28;45385;-65
2022/07/16 08:43:37;;;;;;;;;3.75;3.75;;;;;25.58;37.34;101688.25;5057394;28;45436;-65
2022/07/16 08:46:03;;;;;;;;;4.75;4.75;;;;;26.07;35.20;101694.09;5057566;28;45334;-65
2022/07/16 08:48:30;;;;;;;;;4.25;4.25;;;;;26.48;35.18;101676.13;5057393;28;45324;-65
2022/07/16 08:50:58;;;;;;;;;4.25;4.25;;;;;27.03;33.85;101687.44;5057236;28;45399;-65
2022/07/16 08:53:24;;;;;;;;;5.00;5.00;;;;;27.32;32.66;101680.66;5056182;28;45342;-64
2022/07/16 08:55:54;;;;;;;;;6.50;5.00;;;;;27.59;34.02;101694.00;5058100;28;45507;-65
2022/07/16 08:58:19;;;;;;;;;7.75;6.00;;;;;27.87;31.05;101688.22;5058255;28;45259;-63
2022/07/16 09:00:45;;;;;;;;;8.50;4.75;;;;;28.01;30.50;101682.06;5057838;28;45298;-65
2022/07/16 09:03:15;;;;;;;;;7.25;7.25;;;;;28.27;31.01;101697.41;5057460;28;45219;-65
2022/07/16 09:05:41;;;;;;;;;4.80;4.80;;;;;28.69;31.03;101692.47;5056752;28;45512;-66
2022/07/16 09:08:07;;;;;;;;;5.00;4.00;;;;;29.08;30.93;101686.13;5057741;28;45548;-66
2022/07/16 09:10:37;;;;;;;;;3.00;3.00;;;;;29.60;30.95;101685.44;5057333;28;46321;-64
2022/07/16 09:13:03;;;;;;;;;6.80;6.80;;;;;29.89;29.75;101685.53;5055595;28;45310;-64
2022/07/16 09:15:34;;;;;;;;;5.00;5.00;;;;;30.24;29.54;101699.59;5057321;28;45374;-65
2022/07/16 09:18:21;;;;;;;;;4.00;4.00;;;;;30.51;28.66;101706.34;5057339;28;45491;-63
2022/07/16 09:20:49;;;;;;;;;3.20;3.20;;;;;30.74;27.81;101701.63;5055599;28;45264;-66
2022/07/16 09:23:19;;;;;;;;;4.60;4.60;;;;;31.09;26.23;101691.66;5056998;28;45279;-64
2022/07/16 09:25:53;;;;;;;;;6.60;5.00;;;;;31.37;26.91;101690.94;5057211;28;45417;-67
2022/07/16 09:28:19;;;;;;;;;3.20;3.20;;;;;31.66;25.89;101685.31;5057733;28;45369;-64
2022/07/16 09:30:45;;;;;;;;;4.60;4.00;;;;;32.04;25.20;101690.50;5055030;28;46365;-62
2022/07/16 09:33:20;;;;;;;;;6.50;4.75;;;;;32.27;25.56;101695.72;5056702;28;45730;-66
2022/07/16 09:35:47;;;;;;;;;5.20;5.00;;;;;32.55;25.23;101695.72;5055499;28;45287;-66
2022/07/16 09:38:12;;;;;;;;;4.00;2.40;;;;;32.68;25.05;101690.25;5055661;28;45473;-63
2022/07/16 09:40:44;;;;;;;;;3.25;3.25;;;;;32.94;23.01;101692.31;5055349;28;47240;-65
2022/07/16 09:43:15;;;;;;;;;4.20;4.20;;;;;32.89;24.42;101694.00;5056398;28;45405;-64
2022/07/16 09:45:43;;;;;;;;;2.80;2.80;;;;;32.98;23.45;101692.75;5055372;28;45481;-65
2022/07/16 09:48:23;;;;;;;;;6.00;4.60;;;;;33.27;23.14;101692.41;5056872;28;45507;-66
2022/07/16 09:50:50;;;;;;;;;3.80;3.80;;;;;32.93;22.45;101692.50;5056802;28;46113;-65
2022/07/16 09:53:17;;;;;;;;;4.20;4.00;;;;;32.77;23.29;101689.03;5056455;28;45344;-66
2022/07/16 09:56:02;;;;;;;;;3.60;3.60;;;;;33.12;24.04;101683.47;5056587;28;45403;-65
2022/07/16 09:58:29;;;;;;;;;5.60;4.00;;;;;33.41;22.62;101690.56;5056576;28;45424;-67
2022/07/16 10:00:55;;;;;;;;;5.00;5.00;;;;;33.39;22.50;101695.44;5055934;28;46110;-64
2022/07/16 10:03:21;;;;;;;;;6.20;5.20;;;;;33.37;22.80;101697.56;5038294;28;45272;-64
2022/07/16 10:05:47;;;;;;;;;8.00;7.75;;;;;33.49;22.06;101693.13;5056135;28;45320;-66
2022/07/16 10:08:14;;;;;;;;;4.60;4.60;;;;;33.64;22.42;101691.00;5056494;28;45200;-65
2022/07/16 10:10:39;;;;;;;;;4.00;4.00;;;;;33.72;23.14;101698.22;5055994;28;46291;-64
2022/07/16 10:13:05;;;;;;;;;5.00;4.00;;;;;33.94;22.78;101705.25;5056083;28;46013;-64
2022/07/16 10:15:31;;;;;;;;;4.00;4.00;;;;;33.98;22.52;101706.50;5056437;28;45380;-62
2022/07/16 10:17:56;;;;;;;;;2.75;2.75;;;;;33.79;21.80;101692.69;5056411;28;45405;-64
2022/07/16 10:20:22;;;;;;;;;4.00;4.00;;;;;33.64;21.81;101691.00;5056504;28;46200;-63
2022/07/16 10:22:50;;;;;;;;;6.00;4.50;;;;;33.28;21.99;101699.63;5056384;28;45326;-65
2022/07/16 10:25:20;;;;;;;;;5.20;4.20;;;;;33.14;21.54;101695.97;5056284;28;45304;-65
2022/07/16 10:27:46;;;;;;;;;4.20;4.20;;;;;32.50;22.40;101692.72;5056410;28;45419;-64
2022/07/16 10:30:18;;;;;;;;;3.50;3.50;;;;;32.22;23.23;101701.84;5055872;28;45430;-64
2022/07/16 10:33:20;;;;;;;;;5.00;5.00;;;;;31.94;23.24;101698.25;5054551;28;45283;-61
2022/07/16 10:36:03;;;;;;;;;5.20;4.00;;;;;31.63;24.35;101695.84;5055752;28;45392;-63
2022/07/16 10:38:28;;;;;;;;;6.00;5.80;;;;;31.19;24.33;101701.53;5056130;28;45461;-62
2022/07/16 10:41:13;;;;;;;;;4.50;4.00;;;;;30.92;25.24;101698.44;5055763;28;45547;-64
2022/07/16 10:43:40;;;;;;;;;4.80;3.00;;;;;30.72;25.03;101692.69;5055974;28;45399;-63
2022/07/16 10:46:07;;;;;;;;;5.00;3.80;;;;;30.37;25.39;101694.31;5054810;28;45362;-66
2022/07/16 10:48:36;;;;;;;;;7.40;3.80;;;;;30.11;25.45;101708.50;5056387;28;45349;-66
2022/07/16 10:51:27;;;;;;;;;5.80;5.80;;;;;29.65;25.57;101693.97;5055555;28;45976;-66
2022/07/16 10:53:56;;;;;;;;;5.60;4.40;;;;;29.32;26.11;101691.47;5053899;28;45350;-64
2022/07/16 10:56:45;;;;;;;;;3.00;3.00;;;;;29.18;27.37;101702.34;5054649;28;45386;-64
2022/07/16 10:59:13;;;;;;;;;4.20;4.20;;;;;28.97;26.20;101695.59;5054829;28;45448;-65
2022/07/16 11:01:41;;;;;;;;;5.20;5.20;;;;;28.89;26.98;101694.78;5055409;28;46581;-63
2022/07/16 11:04:08;;;;;;;;;7.60;4.80;;;;;28.74;26.85;101692.78;5055512;28;45418;-66
2022/07/16 11:06:33;;;;;;;;;6.00;5.00;;;;;28.59;27.16;101691.81;5055841;28;45438;-66
2022/07/16 11:09:02;;;;;;;;;3.00;3.00;;;;;28.53;26.86;101691.69;5055860;28;45424;-64
2022/07/16 11:11:37;;;;;;;;;4.00;4.00;;;;;28.38;27.02;101691.53;5055705;28;45240;-64
2022/07/16 11:14:05;;;;;;;;;7.20;5.40;;;;;28.16;27.66;101672.09;5055541;28;45377;-65
2022/07/16 11:16:31;;;;;;;;;5.00;4.20;;;;;28.13;27.47;101697.06;5055778;28;45484;-63
2022/07/16 11:19:00;;;;;;;;;5.00;5.00;;;;;27.95;27.99;101688.19;5059481;28;45359;-64
2022/07/16 11:21:27;;;;;;;;;6.00;6.00;;;;;27.99;27.72;101681.34;5059002;28;45722;-64
2022/07/16 11:24:01;;;;;;;;;5.40;5.40;;;;;28.05;28.16;101688.88;5058835;28;45299;-64
2022/07/16 11:26:29;;;;;;;;;5.00;5.00;;;;;27.96;28.32;101678.97;5058127;28;45339;-64
2022/07/16 11:28:56;;;;;;;;;4.25;4.25;;;;;28.03;27.17;101682.72;5059249;28;45583;-64